sensor_id;sensor_type;location;lat;lon;timestamp;P1;durP1;ratioP1;P2;durP2;ratioP2
25984;SDS011;66753;53.848;10.658;2023-07-31T00:01:37;2.83;;;0.80;;
25984;SDS011;66753;53.848;10.658;2023-07-31T00:16:39;3.97;;;1.03;;
25984;SDS011;66753;53.848;10.658;2023-07-31T00:31:40;2.43;;;1.10;;
25984;SDS011;66753;53.848;10.658;2023-07-31T00:46:41;4.03;;;0.90;;
25984;SDS011;66753;53.848;10.658;2023-07-31T01:01:43;1.70;;;0.80;;
25984;SDS011;66753;53.848;10.658;2023-07-31T01:16:45;2.07;;;0.90;;
25984;SDS011;66753;53.848;10.658;2023-07-31T01:31:48;3.67;;;0.93;;
25984;SDS011;66753;53.848;10.658;2023-07-31T01:46:51;3.80;;;1.27;;
25984;SDS011;66753;53.848;10.658;2023-07-31T02:01:52;8.40;;;1.37;;
25984;SDS011;66753;53.848;10.658;2023-07-31T02:16:54;3.87;;;1.00;;
25984;SDS011;66753;53.848;10.658;2023-07-31T02:31:55;2.93;;;1.20;;
25984;SDS011;66753;53.848;10.658;2023-07-31T02:46:56;4.00;;;1.30;;
25984;SDS011;66753;53.848;10.658;2023-07-31T03:01:59;6.30;;;1.63;;
25984;SDS011;66753;53.848;10.658;2023-07-31T03:17:00;5.80;;;1.33;;
25984;SDS011;66753;53.848;10.658;2023-07-31T03:32:03;6.23;;;1.50;;
25984;SDS011;66753;53.848;10.658;2023-07-31T03:47:04;3.73;;;1.30;;
25984;SDS011;66753;53.848;10.658;2023-07-31T04:02:06;5.67;;;1.40;;
25984;SDS011;66753;53.848;10.658;2023-07-31T04:17:08;4.00;;;1.33;;
25984;SDS011;66753;53.848;10.658;2023-07-31T04:32:09;4.07;;;1.27;;
25984;SDS011;66753;53.848;10.658;2023-07-31T04:47:10;4.80;;;1.80;;
25984;SDS011;66753;53.848;10.658;2023-07-31T05:02:12;4.33;;;1.87;;
25984;SDS011;66753;53.848;10.658;2023-07-31T05:17:13;3.80;;;1.77;;
25984;SDS011;66753;53.848;10.658;2023-07-31T05:32:15;3.67;;;1.90;;
25984;SDS011;66753;53.848;10.658;2023-07-31T05:47:16;4.40;;;2.10;;
25984;SDS011;66753;53.848;10.658;2023-07-31T06:02:18;4.70;;;2.80;;
25984;SDS011;66753;53.848;10.658;2023-07-31T06:17:19;4.13;;;1.80;;
25984;SDS011;66753;53.848;10.658;2023-07-31T06:32:21;5.43;;;2.07;;
25984;SDS011;66753;53.848;10.658;2023-07-31T06:47:23;3.77;;;2.27;;
25984;SDS011;66753;53.848;10.658;2023-07-31T07:02:25;3.93;;;1.90;;
25984;SDS011;66753;53.848;10.658;2023-07-31T07:17:27;4.53;;;1.80;;
25984;SDS011;66753;53.848;10.658;2023-07-31T07:32:32;4.53;;;1.90;;
25984;SDS011;66753;53.848;10.658;2023-07-31T07:47:33;3.90;;;2.53;;
25984;SDS011;66753;53.848;10.658;2023-07-31T08:02:35;2.93;;;1.77;;
25984;SDS011;66753;53.848;10.658;2023-07-31T08:17:37;2.83;;;1.60;;
25984;SDS011;66753;53.848;10.658;2023-07-31T08:32:38;1.90;;;1.23;;
25984;SDS011;66753;53.848;10.658;2023-07-31T08:47:40;1.93;;;0.87;;
25984;SDS011;66753;53.848;10.658;2023-07-31T09:03:08;2.33;;;0.87;;
25984;SDS011;66753;53.848;10.658;2023-07-31T09:18:12;1.43;;;0.60;;
25984;SDS011;66753;53.848;10.658;2023-07-31T09:33:19;1.37;;;0.50;;
25984;SDS011;66753;53.848;10.658;2023-07-31T09:48:22;1.20;;;0.57;;
25984;SDS011;66753;53.848;10.658;2023-07-31T10:03:28;2.00;;;0.70;;
25984;SDS011;66753;53.848;10.658;2023-07-31T10:18:32;1.37;;;0.60;;
25984;SDS011;66753;53.848;10.658;2023-07-31T10:33:36;1.40;;;0.60;;
25984;SDS011;66753;53.848;10.658;2023-07-31T10:48:40;0.77;;;0.50;;
25984;SDS011;66753;53.848;10.658;2023-07-31T11:03:43;1.10;;;0.50;;
25984;SDS011;66753;53.848;10.658;2023-07-31T11:18:48;1.90;;;0.60;;
25984;SDS011;66753;53.848;10.658;2023-07-31T11:34:03;0.33;;;0.30;;
25984;SDS011;66753;53.848;10.658;2023-07-31T11:49:06;0.50;;;0.40;;
25984;SDS011;66753;53.848;10.658;2023-07-31T12:04:07;2.30;;;0.40;;
25984;SDS011;66753;53.848;10.658;2023-07-31T12:19:09;0.77;;;0.30;;
25984;SDS011;66753;53.848;10.658;2023-07-31T12:34:17;1.30;;;0.40;;
25984;SDS011;66753;53.848;10.658;2023-07-31T12:49:23;0.87;;;0.30;;
25984;SDS011;66753;53.848;10.658;2023-07-31T13:04:25;2.27;;;0.30;;
25984;SDS011;66753;53.848;10.658;2023-07-31T13:19:27;1.00;;;0.60;;
25984;SDS011;66753;53.848;10.658;2023-07-31T13:34:28;2.43;;;0.73;;
25984;SDS011;66753;53.848;10.658;2023-07-31T13:49:30;2.10;;;0.60;;
25984;SDS011;66753;53.848;10.658;2023-07-31T14:04:32;2.90;;;0.73;;
25984;SDS011;66753;53.848;10.658;2023-07-31T14:19:33;2.07;;;0.70;;
25984;SDS011;66753;53.848;10.658;2023-07-31T14:34:35;3.23;;;0.90;;
25984;SDS011;66753;53.848;10.658;2023-07-31T14:49:37;2.67;;;0.67;;
25984;SDS011;66753;53.848;10.658;2023-07-31T15:04:38;1.70;;;0.80;;
25984;SDS011;66753;53.848;10.658;2023-07-31T15:34:41;2.37;;;0.60;;
25984;SDS011;66753;53.848;10.658;2023-07-31T15:49:43;2.27;;;0.50;;
25984;SDS011;66753;53.848;10.658;2023-07-31T16:04:44;1.20;;;0.40;;
25984;SDS011;66753;53.848;10.658;2023-07-31T16:19:45;1.27;;;0.30;;
25984;SDS011;66753;53.848;10.658;2023-07-31T16:34:48;2.30;;;0.50;;
25984;SDS011;66753;53.848;10.658;2023-07-31T16:49:50;1.43;;;0.40;;
25984;SDS011;66753;53.848;10.658;2023-07-31T17:04:53;1.43;;;0.40;;
25984;SDS011;66753;53.848;10.658;2023-07-31T17:19:54;2.40;;;0.40;;
25984;SDS011;66753;53.848;10.658;2023-07-31T17:34:56;1.90;;;0.60;;
25984;SDS011;66753;53.848;10.658;2023-07-31T17:49:58;0.97;;;0.30;;
25984;SDS011;66753;53.848;10.658;2023-07-31T18:05:00;2.23;;;0.43;;
25984;SDS011;66753;53.848;10.658;2023-07-31T18:20:02;1.90;;;0.50;;
25984;SDS011;66753;53.848;10.658;2023-07-31T18:35:07;2.07;;;0.73;;
25984;SDS011;66753;53.848;10.658;2023-07-31T18:50:09;1.37;;;0.70;;
25984;SDS011;66753;53.848;10.658;2023-07-31T19:05:12;1.63;;;0.80;;
25984;SDS011;66753;53.848;10.658;2023-07-31T19:20:14;2.27;;;0.80;;
25984;SDS011;66753;53.848;10.658;2023-07-31T19:35:16;2.30;;;1.00;;
25984;SDS011;66753;53.848;10.658;2023-07-31T19:50:18;2.70;;;1.33;;
25984;SDS011;66753;53.848;10.658;2023-07-31T20:05:19;3.87;;;1.57;;
25984;SDS011;66753;53.848;10.658;2023-07-31T20:20:21;4.27;;;2.27;;
25984;SDS011;66753;53.848;10.658;2023-07-31T20:35:23;4.97;;;2.63;;
25984;SDS011;66753;53.848;10.658;2023-07-31T20:50:25;7.50;;;3.10;;
25984;SDS011;66753;53.848;10.658;2023-07-31T21:05:27;6.03;;;2.87;;
25984;SDS011;66753;53.848;10.658;2023-07-31T21:20:29;6.33;;;2.90;;
25984;SDS011;66753;53.848;10.658;2023-07-31T21:35:31;5.20;;;3.20;;
25984;SDS011;66753;53.848;10.658;2023-07-31T21:50:33;7.73;;;3.17;;
25984;SDS011;66753;53.848;10.658;2023-07-31T22:05:34;5.00;;;2.87;;
25984;SDS011;66753;53.848;10.658;2023-07-31T22:20:36;5.10;;;2.47;;
25984;SDS011;66753;53.848;10.658;2023-07-31T22:50:39;3.23;;;1.20;;
25984;SDS011;66753;53.848;10.658;2023-07-31T23:05:41;2.70;;;1.00;;
25984;SDS011;66753;53.848;10.658;2023-07-31T23:20:50;1.87;;;0.70;;
25984;SDS011;66753;53.848;10.658;2023-07-31T23:35:53;2.63;;;0.63;;
25984;SDS011;66753;53.848;10.658;2023-07-31T23:50:55;1.43;;;0.50;;
